Time;durP1;ratioP1;P1;durP2;ratioP2;P2;SDS_P1;SDS_P2;PMS_P1;PMS_P2;Temp;Humidity;BMP_temperature;BMP_pressure;BME280_temperature;BME280_humidity;BME280_pressure;Samples;Min_cycle;Max_cycle;Signal;HPM_P1;HPM_P2
2021/06/09 00:00:33;;;;;;;31.30;28.40;;;17.10;99.90;;;;;;5121432;28;20425;-35
2021/06/09 00:02:59;;;;;;;29.20;26.50;;;17.00;99.90;;;;;;5120893;28;20174;-35
2021/06/09 00:05:25;;;;;;;31.43;28.13;;;17.00;99.90;;;;;;5121029;28;20274;-35
2021/06/09 00:07:50;;;;;;;30.30;27.43;;;17.00;99.90;;;;;;5120960;28;20534;-35
2021/06/09 00:10:16;;;;;;;32.03;28.93;;;17.00;99.90;;;;;;5120189;28;20221;-35
2021/06/09 00:12:41;;;;;;;33.20;29.90;;;16.90;99.90;;;;;;5120523;28;20168;-34
2021/06/09 00:15:13;;;;;;;33.07;29.90;;;16.90;99.90;;;;;;5119828;28;20199;-35
2021/06/09 00:17:39;;;;;;;33.57;30.37;;;16.90;99.90;;;;;;5120332;28;20211;-35
2021/06/09 00:20:07;;;;;;;34.47;31.30;;;16.90;99.90;;;;;;5120605;28;20529;-34
2021/06/09 00:22:33;;;;;;;34.00;30.90;;;16.80;99.90;;;;;;5121169;28;20415;-34
2021/06/09 00:24:59;;;;;;;35.50;32.20;;;16.80;99.90;;;;;;5120428;28;20426;-35
2021/06/09 00:27:25;;;;;;;37.63;34.03;;;16.80;99.90;;;;;;5120914;28;20176;-36
2021/06/09 00:29:51;;;;;;;37.10;33.57;;;16.80;99.90;;;;;;5120748;28;20188;-35
2021/06/09 00:32:16;;;;;;;36.70;32.90;;;16.70;99.90;;;;;;5119355;28;20499;-35
2021/06/09 00:34:42;;;;;;;34.90;31.60;;;16.70;99.90;;;;;;5120013;28;20562;-35
2021/06/09 00:37:08;;;;;;;34.47;31.37;;;16.60;99.90;;;;;;5119703;28;20547;-34
2021/06/09 00:39:33;;;;;;;34.00;31.00;;;16.60;99.90;;;;;;5119906;28;20601;-34
2021/06/09 00:41:59;;;;;;;34.80;31.70;;;16.60;99.90;;;;;;5120207;28;20593;-35
2021/06/09 00:44:25;;;;;;;35.63;32.40;;;16.60;99.90;;;;;;5119244;28;20241;-35
2021/06/09 00:46:50;;;;;;;37.10;33.50;;;16.60;99.90;;;;;;5119679;28;20218;-36
2021/06/09 00:49:16;;;;;;;35.33;31.93;;;16.60;99.90;;;;;;5119701;28;20205;-35
2021/06/09 00:51:41;;;;;;;37.83;34.23;;;16.60;99.90;;;;;;5119780;28;20195;-34
2021/06/09 00:54:08;;;;;;;34.67;31.47;;;16.60;99.90;;;;;;5119285;28;20179;-34
2021/06/09 00:56:36;;;;;;;37.63;34.03;;;16.60;99.90;;;;;;5119253;28;20223;-35
2021/06/09 00:59:05;;;;;;;37.87;34.27;;;16.60;99.90;;;;;;5120027;28;20409;-35
2021/06/09 01:01:31;;;;;;;33.23;30.07;;;16.50;99.90;;;;;;5119071;28;20417;-35
2021/06/09 01:03:57;;;;;;;32.00;29.03;;;16.50;99.90;;;;;;5119516;28;20490;-34
2021/06/09 01:06:23;;;;;;;31.37;28.57;;;16.50;99.90;;;;;;5119014;28;20433;-36
2021/06/09 01:08:51;;;;;;;31.47;28.57;;;16.50;99.90;;;;;;5119141;28;20409;-36
2021/06/09 01:11:19;;;;;;;34.20;30.63;;;16.50;99.90;;;;;;5119016;28;20726;-35
2021/06/09 01:13:46;;;;;;;31.40;28.30;;;16.40;99.90;;;;;;5119227;28;20838;-35
2021/06/09 01:16:12;;;;;;;28.30;25.70;;;16.40;99.90;;;;;;5118691;28;20588;-35
2021/06/09 01:18:38;;;;;;;30.17;27.33;;;16.50;99.90;;;;;;5119048;28;20414;-35
2021/06/09 01:21:04;;;;;;;29.43;26.73;;;16.40;99.90;;;;;;5118905;28;20459;-35
2021/06/09 01:23:30;;;;;;;29.53;26.83;;;16.50;99.90;;;;;;5131929;27;20273;-36
2021/06/09 01:25:56;;;;;;;29.17;26.50;;;16.50;99.90;;;;;;5139258;27;20545;-35
2021/06/09 01:28:22;;;;;;;28.17;25.67;;;16.40;99.90;;;;;;5139904;27;20175;-35
2021/06/09 01:30:48;;;;;;;26.97;24.47;;;16.40;99.90;;;;;;5139716;27;20516;-35
2021/06/09 01:33:15;;;;;;;27.03;24.53;;;16.40;99.90;;;;;;5139835;27;20412;-35
2021/06/09 01:35:42;;;;;;;31.00;27.80;;;16.40;99.90;;;;;;5139345;27;20493;-35
2021/06/09 01:38:08;;;;;;;28.37;25.77;;;16.40;99.90;;;;;;5139353;27;20446;-35
2021/06/09 01:40:34;;;;;;;29.17;26.57;;;16.40;99.90;;;;;;5121115;27;20412;-35
2021/06/09 01:43:02;;;;;;;27.20;24.63;;;16.40;99.90;;;;;;5139540;27;20423;-36
2021/06/09 01:45:30;;;;;;;26.00;23.57;;;16.40;99.90;;;;;;5138607;27;20633;-35
2021/06/09 01:47:56;;;;;;;28.67;26.07;;;16.40;99.90;;;;;;5138644;27;20500;-35
2021/06/09 01:50:22;;;;;;;24.80;22.47;;;16.30;99.90;;;;;;5138461;27;20459;-34
2021/06/09 01:52:49;;;;;;;28.13;25.30;;;16.30;99.90;;;;;;5138746;27;20179;-36
2021/06/09 01:55:16;;;;;;;27.87;25.33;;;16.30;99.90;;;;;;5138745;27;20487;-35
2021/06/09 01:57:42;;;;;;;26.03;23.50;;;16.30;99.90;;;;;;5139041;27;20582;-35
2021/06/09 02:00:30;;;;;;;27.80;25.30;;;16.30;99.90;;;;;;5139589;27;20508;-35
2021/06/09 02:02:59;;;;;;;26.67;24.23;;;16.30;99.90;;;;;;5138587;27;20435;-36
2021/06/09 02:05:27;;;;;;;25.83;23.60;;;16.30;99.90;;;;;;5139068;28;20409;-34
2021/06/09 02:07:55;;;;;;;25.70;23.50;;;16.30;99.90;;;;;;5138782;27;20451;-34
2021/06/09 02:10:22;;;;;;;22.60;20.50;;;16.30;99.90;;;;;;5139623;27;20412;-35
2021/06/09 02:12:52;;;;;;;25.73;23.43;;;16.30;99.90;;;;;;5138970;27;20489;-35
2021/06/09 02:15:20;;;;;;;24.23;22.20;;;16.30;99.90;;;;;;5138426;27;20483;-36
2021/06/09 02:17:56;;;;;;;25.67;23.47;;;16.30;99.90;;;;;;5138851;27;20476;-37
2021/06/09 02:20:25;;;;;;;24.00;21.80;;;16.30;99.90;;;;;;5139779;27;20724;-35
2021/06/09 02:22:52;;;;;;;25.70;23.40;;;16.30;99.90;;;;;;5138952;27;20841;-34
2021/06/09 02:25:18;;;;;;;24.60;22.40;;;16.30;99.90;;;;;;5139355;27;20424;-34
2021/06/09 02:27:44;;;;;;;25.27;23.03;;;16.30;99.90;;;;;;5139922;27;20706;-35
2021/06/09 02:30:10;;;;;;;25.10;23.00;;;16.20;99.90;;;;;;5120350;28;20441;-35
2021/06/09 02:32:36;;;;;;;24.00;21.63;;;16.20;99.90;;;;;;5138536;28;20428;-35
2021/06/09 02:35:03;;;;;;;23.57;21.57;;;16.20;99.90;;;;;;5138398;28;20845;-35
2021/06/09 02:37:29;;;;;;;25.57;23.17;;;16.20;99.90;;;;;;5102361;28;20313;-35
2021/06/09 02:39:54;;;;;;;23.40;21.40;;;16.20;99.90;;;;;;5138742;28;20561;-35
2021/06/09 02:42:20;;;;;;;24.23;22.13;;;16.20;99.90;;;;;;5138850;27;20186;-40
2021/06/09 02:44:47;;;;;;;23.73;21.60;;;16.20;99.90;;;;;;5120393;28;20212;-35
2021/06/09 02:47:13;;;;;;;25.97;23.67;;;16.20;99.90;;;;;;5138725;28;20413;-36
2021/06/09 02:49:41;;;;;;;24.57;22.37;;;16.10;99.90;;;;;;5138340;27;20432;-35
2021/06/09 02:52:06;;;;;;;24.40;22.07;;;16.10;99.90;;;;;;5119668;28;20826;-35
2021/06/09 02:54:41;;;;;;;23.53;21.53;;;16.10;99.90;;;;;;5138644;27;20429;-34
2021/06/09 02:57:33;;;;;;;22.83;20.83;;;16.10;99.90;;;;;;5142284;27;20317;-36
2021/06/09 03:00:18;;;;;;;24.90;22.80;;;16.10;99.90;;;;;;5125044;27;20412;-35
2021/06/09 03:03:03;;;;;;;24.53;22.43;;;16.10;99.90;;;;;;5124522;27;20412;-35
2021/06/09 03:05:55;;;;;;;25.53;23.23;;;16.10;99.90;;;;;;5124889;27;20405;-35
2021/06/09 03:08:26;;;;;;;25.00;22.67;;;16.10;99.90;;;;;;5131080;27;20428;-35
2021/06/09 03:11:09;;;;;;;25.37;23.27;;;16.10;99.90;;;;;;5142424;27;20408;-35
2021/06/09 03:13:53;;;;;;;26.17;23.73;;;16.00;99.90;;;;;;5123947;27;20421;-35
2021/06/09 03:16:46;;;;;;;27.03;24.63;;;16.00;99.90;;;;;;5126235;27;20901;-35
2021/06/09 03:19:18;;;;;;;26.57;24.13;;;16.00;99.90;;;;;;5124563;27;20424;-35
2021/06/09 03:21:53;;;;;;;25.57;23.07;;;16.00;99.90;;;;;;5141584;27;20463;-35
2021/06/09 03:24:32;;;;;;;25.20;22.83;;;16.00;99.90;;;;;;5124621;27;20420;-35
2021/06/09 03:27:01;;;;;;;23.77;21.77;;;16.00;99.90;;;;;;5142756;27;20798;-35
2021/06/09 03:29:52;;;;;;;23.73;21.63;;;16.00;99.90;;;;;;5123808;27;20428;-35
2021/06/09 03:32:24;;;;;;;22.13;20.33;;;16.00;99.90;;;;;;5141621;27;20417;-35
2021/06/09 03:35:08;;;;;;;22.60;20.50;;;16.00;99.90;;;;;;5124320;27;20435;-35
2021/06/09 03:37:38;;;;;;;23.73;21.63;;;16.00;99.90;;;;;;5124443;27;20482;-36
2021/06/09 03:40:11;;;;;;;22.07;20.13;;;16.00;99.90;;;;;;5139970;27;20451;-35
2021/06/09 03:42:38;;;;;;;21.57;19.63;;;16.00;99.90;;;;;;5142125;27;20499;-35
2021/06/09 03:45:05;;;;;;;21.40;19.60;;;16.10;99.90;;;;;;5123969;27;20427;-35
2021/06/09 03:47:32;;;;;;;24.07;21.97;;;16.10;99.90;;;;;;5123388;27;20405;-35
2021/06/09 03:49:58;;;;;;;21.97;19.93;;;16.10;99.90;;;;;;5123830;27;20413;-35
2021/06/09 03:52:23;;;;;;;23.83;21.73;;;16.10;99.90;;;;;;5123669;27;20504;-36
2021/06/09 03:54:55;;;;;;;23.73;21.63;;;16.10;99.90;;;;;;5123570;27;20557;-35
2021/06/09 03:57:24;;;;;;;20.50;18.87;;;16.10;99.90;;;;;;5123904;27;20460;-35
2021/06/09 03:59:50;;;;;;;22.70;20.70;;;16.10;99.90;;;;;;5124288;27;20429;-36
2021/06/09 04:02:17;;;;;;;25.97;23.00;;;16.10;99.90;;;;;;5106832;27;20413;-35
2021/06/09 04:04:43;;;;;;;21.67;19.83;;;16.20;99.90;;;;;;5123310;27;20485;-35
2021/06/09 04:07:09;;;;;;;22.40;20.40;;;16.20;99.90;;;;;;5141942;27;20507;-35
2021/06/09 04:09:35;;;;;;;21.70;19.90;;;16.30;99.90;;;;;;5122615;27;20425;-34
2021/06/09 04:12:03;;;;;;;21.57;19.77;;;16.30;99.90;;;;;;5123074;27;20476;-35
2021/06/09 04:14:40;;;;;;;23.30;21.30;;;16.30;99.90;;;;;;5122210;27;20447;-35
2021/06/09 04:17:07;;;;;;;21.63;19.83;;;16.40;99.90;;;;;;5140258;27;20514;-35
2021/06/09 04:19:34;;;;;;;21.90;19.90;;;16.40;99.90;;;;;;5141788;27;20440;-35
2021/06/09 04:22:05;;;;;;;21.00;19.00;;;16.50;99.90;;;;;;5140752;27;20911;-35
2021/06/09 04:24:38;;;;;;;21.70;19.70;;;16.60;99.90;;;;;;5139346;27;20420;-35
2021/06/09 04:27:09;;;;;;;22.73;20.73;;;16.60;99.90;;;;;;5122476;27;20413;-36
2021/06/09 04:29:37;;;;;;;21.63;19.83;;;16.70;99.90;;;;;;5122185;27;20845;-36
2021/06/09 04:32:05;;;;;;;25.60;23.30;;;16.70;99.90;;;;;;5139270;27;20409;-35
2021/06/09 04:34:55;;;;;;;22.77;20.77;;;16.60;99.90;;;;;;5139057;27;20471;-35
2021/06/09 04:37:23;;;;;;;23.43;21.17;;;16.60;99.90;;;;;;5138999;27;20532;-35
2021/06/09 04:39:51;;;;;;;21.70;19.73;;;16.70;99.90;;;;;;5138498;27;20429;-35
2021/06/09 04:42:17;;;;;;;20.97;19.07;;;16.70;99.90;;;;;;5139418;27;20814;-34
2021/06/09 04:44:43;;;;;;;23.20;21.10;;;16.70;99.90;;;;;;5139795;27;20433;-35
2021/06/09 04:47:10;;;;;;;21.37;19.57;;;16.70;99.90;;;;;;5139060;27;20401;-36
2021/06/09 04:49:38;;;;;;;19.13;17.47;;;16.80;99.90;;;;;;5139908;27;20460;-35
2021/06/09 04:52:05;;;;;;;20.17;18.37;;;16.90;99.90;;;;;;5140821;27;20834;-36
2021/06/09 04:54:30;;;;;;;21.80;19.90;;;16.90;99.90;;;;;;5138792;27;20436;-35
2021/06/09 04:56:56;;;;;;;20.97;19.00;;;17.10;99.90;;;;;;5138945;27;20460;-35
2021/06/09 04:59:22;;;;;;;21.17;19.37;;;17.20;99.90;;;;;;5119143;27;20240;-35
2021/06/09 05:01:48;;;;;;;20.07;18.43;;;17.30;99.90;;;;;;5137800;27;20243;-36
2021/06/09 05:04:14;;;;;;;23.73;21.60;;;17.40;99.90;;;;;;5139944;27;20870;-35
2021/06/09 05:06:40;;;;;;;22.03;20.07;;;17.40;99.90;;;;;;5120895;27;20416;-37
2021/06/09 05:09:07;;;;;;;22.60;20.60;;;17.30;99.90;;;;;;5138775;27;20221;-36
2021/06/09 05:11:40;;;;;;;22.07;20.07;;;17.40;99.90;;;;;;5138623;27;20175;-36
2021/06/09 05:14:10;;;;;;;22.33;20.53;;;17.40;99.90;;;;;;5121397;27;20443;-35
2021/06/09 05:16:37;;;;;;;22.37;20.37;;;17.50;99.90;;;;;;5120811;27;20484;-35
2021/06/09 05:19:04;;;;;;;21.30;19.50;;;17.50;99.90;;;;;;5138920;27;20734;-36
2021/06/09 05:21:32;;;;;;;20.50;18.80;;;17.60;99.90;;;;;;5120783;27;20428;-36
2021/06/09 05:23:58;;;;;;;21.93;20.13;;;17.70;99.90;;;;;;5103352;27;20432;-34
2021/06/09 05:26:24;;;;;;;22.37;20.37;;;17.80;99.90;;;;;;5120504;27;20427;-34
2021/06/09 05:28:54;;;;;;;22.50;20.40;;;17.90;99.90;;;;;;5120501;27;20443;-35
2021/06/09 05:31:20;;;;;;;20.93;19.10;;;18.00;99.90;;;;;;5119571;27;20412;-34
2021/06/09 05:33:46;;;;;;;20.67;18.93;;;18.00;99.90;;;;;;5119784;27;20436;-42
2021/06/09 05:36:12;;;;;;;25.10;22.80;;;18.10;99.90;;;;;;5119631;27;20468;-42
2021/06/09 05:38:39;;;;;;;20.83;19.13;;;18.10;99.90;;;;;;5118467;27;20544;-41
2021/06/09 05:41:04;;;;;;;22.33;20.33;;;18.30;99.90;;;;;;5132985;27;20413;-42
2021/06/09 05:43:31;;;;;;;24.47;22.27;;;18.40;99.90;;;;;;5133593;27;20435;-43
2021/06/09 05:45:59;;;;;;;23.87;21.80;;;18.50;99.90;;;;;;5133472;27;20198;-43
2021/06/09 05:48:27;;;;;;;22.33;20.33;;;18.50;99.90;;;;;;5134323;27;20842;-43
2021/06/09 05:50:54;;;;;;;24.17;21.87;;;18.60;99.90;;;;;;5133873;27;20417;-43
2021/06/09 05:53:27;;;;;;;22.80;20.90;;;18.70;99.90;;;;;;5131237;27;20451;-43
2021/06/09 05:55:53;;;;;;;22.87;20.97;;;18.90;99.90;;;;;;5131791;27;20724;-43
2021/06/09 05:58:21;;;;;;;24.57;22.53;;;19.10;99.90;;;;;;5132207;27;20467;-43
2021/06/09 06:00:54;;;;;;;25.97;23.60;;;19.40;99.90;;;;;;5133227;27;20547;-43
2021/06/09 06:03:20;;;;;;;26.23;24.03;;;19.30;99.90;;;;;;5136019;27;20812;-42
2021/06/09 06:05:48;;;;;;;26.07;23.93;;;19.10;99.90;;;;;;5137122;27;20869;-42
2021/06/09 06:08:14;;;;;;;25.13;22.87;;;19.30;99.90;;;;;;5119714;27;20838;-42
2021/06/09 06:10:39;;;;;;;24.13;22.23;;;19.70;99.90;;;;;;5118902;27;20428;-42
2021/06/09 06:13:07;;;;;;;23.70;21.60;;;19.90;99.90;;;;;;5137181;27;20420;-42
2021/06/09 06:15:32;;;;;;;21.00;19.30;;;20.20;99.90;;;;;;5119221;28;20247;-41
2021/06/09 06:17:59;;;;;;;22.83;20.83;;;20.30;99.90;;;;;;5118316;28;20464;-42
2021/06/09 06:20:24;;;;;;;22.77;20.97;;;20.50;99.90;;;;;;5136889;28;20189;-41
2021/06/09 06:22:52;;;;;;;23.77;21.43;;;20.70;99.90;;;;;;5136792;28;20409;-41
2021/06/09 06:25:23;;;;;;;24.53;22.40;;;20.80;99.90;;;;;;5136043;28;20506;-42
2021/06/09 06:27:51;;;;;;;22.80;20.90;;;21.00;99.90;;;;;;5135633;28;20408;-41
2021/06/09 06:30:19;;;;;;;20.23;18.60;;;21.10;99.90;;;;;;5134982;27;20424;-42
2021/06/09 06:32:46;;;;;;;22.70;20.83;;;21.30;99.90;;;;;;5120683;27;20427;-43
2021/06/09 06:35:18;;;;;;;20.97;19.17;;;21.40;99.90;;;;;;5121903;27;20449;-42
2021/06/09 06:37:44;;;;;;;22.67;20.73;;;21.40;99.90;;;;;;5138786;27;20467;-42
2021/06/09 06:40:11;;;;;;;21.77;19.83;;;21.40;99.90;;;;;;5140427;27;20818;-42
2021/06/09 06:42:37;;;;;;;21.50;19.50;;;21.50;99.90;;;;;;5140481;27;20444;-41
2021/06/09 06:45:04;;;;;;;22.30;20.47;;;21.60;99.90;;;;;;5140480;27;20750;-42
2021/06/09 06:47:30;;;;;;;19.67;18.10;;;21.70;99.90;;;;;;5140662;27;20179;-41
2021/06/09 06:49:59;;;;;;;20.20;18.60;;;21.80;99.90;;;;;;5139514;27;20428;-42
2021/06/09 06:52:31;;;;;;;20.63;18.93;;;22.00;99.90;;;;;;5140543;27;20412;-43
2021/06/09 06:55:01;;;;;;;22.50;20.60;;;22.00;99.80;;;;;;5122602;27;20456;-53
2021/06/09 06:57:29;;;;;;;21.23;19.43;;;22.20;99.90;;;;;;5140921;27;20524;-40
2021/06/09 06:59:56;;;;;;;19.77;18.17;;;22.40;99.70;;;;;;5140452;27;20445;-41
2021/06/09 07:02:22;;;;;;;20.13;18.50;;;22.60;99.40;;;;;;5140186;27;20409;-42
2021/06/09 07:04:48;;;;;;;24.83;22.67;;;22.70;99.20;;;;;;5122415;27;20447;-42
2021/06/09 07:07:15;;;;;;;20.93;19.00;;;22.70;98.70;;;;;;5123400;27;20875;-42
2021/06/09 07:09:41;;;;;;;20.20;18.43;;;22.90;99.20;;;;;;5123268;27;20536;-41
2021/06/09 07:12:07;;;;;;;19.50;17.90;;;23.20;99.20;;;;;;5121610;27;20462;-42
2021/06/09 07:14:35;;;;;;;18.90;17.40;;;23.40;98.30;;;;;;5139287;27;20443;-42
2021/06/09 07:17:01;;;;;;;21.77;19.97;;;23.70;97.60;;;;;;5122820;27;20909;-42
2021/06/09 07:19:26;;;;;;;19.20;17.50;;;23.90;97.50;;;;;;5139503;27;20718;-41
2021/06/09 07:21:54;;;;;;;19.17;17.67;;;24.10;97.30;;;;;;5121566;27;20290;-42
2021/06/09 07:24:20;;;;;;;19.33;17.83;;;24.30;96.10;;;;;;5140267;27;20183;-41
2021/06/09 07:26:47;;;;;;;18.43;16.93;;;24.50;95.90;;;;;;5139912;27;20421;-42
2021/06/09 07:29:17;;;;;;;19.20;17.70;;;24.60;95.40;;;;;;5136590;27;20497;-40
2021/06/09 07:31:45;;;;;;;19.00;17.50;;;24.80;95.00;;;;;;5119471;27;20420;-42
2021/06/09 07:34:11;;;;;;;21.00;19.10;;;25.00;95.70;;;;;;5120958;27;20439;-42
2021/06/09 07:36:48;;;;;;;18.53;17.13;;;25.30;94.60;;;;;;5138241;27;20460;-40
2021/06/09 07:39:27;;;;;;;19.63;18.13;;;25.40;94.50;;;;;;5137851;27;20189;-42
2021/06/09 07:41:54;;;;;;;17.37;15.97;;;25.70;93.50;;;;;;5137709;27;20420;-42
2021/06/09 07:44:20;;;;;;;17.90;16.50;;;25.80;93.10;;;;;;5138069;27;20438;-42
2021/06/09 07:46:47;;;;;;;18.53;17.10;;;25.80;93.30;;;;;;5121064;27;20656;-41
2021/06/09 07:49:13;;;;;;;19.40;17.83;;;25.90;93.00;;;;;;5120629;27;20471;-41
2021/06/09 07:51:42;;;;;;;17.87;16.47;;;26.10;92.80;;;;;;5137686;27;20699;-42
2021/06/09 07:54:08;;;;;;;19.57;18.07;;;26.30;92.40;;;;;;5137575;27;20436;-41
2021/06/09 07:56:36;;;;;;;19.27;17.67;;;26.30;92.60;;;;;;5119871;27;20816;-41
2021/06/09 07:59:05;;;;;;;18.90;17.10;;;26.30;92.10;;;;;;5137776;27;20710;-42
2021/06/09 08:01:32;;;;;;;21.60;19.80;;;26.20;91.90;;;;;;5135767;27;20667;-42
2021/06/09 08:03:57;;;;;;;20.37;18.77;;;25.60;92.40;;;;;;5135853;27;20515;-42
2021/06/09 08:06:24;;;;;;;19.50;18.00;;;25.80;92.00;;;;;;5117534;27;20512;-40
2021/06/09 08:08:50;;;;;;;18.57;17.17;;;26.00;92.20;;;;;;5116453;27;20179;-43
2021/06/09 08:11:16;;;;;;;18.20;16.80;;;26.30;91.80;;;;;;5135197;27;20505;-42
2021/06/09 08:13:43;;;;;;;18.57;16.97;;;26.70;91.30;;;;;;5134364;27;20495;-42
2021/06/09 08:16:13;;;;;;;18.17;16.80;;;26.90;91.20;;;;;;5137048;27;20456;-42
2021/06/09 08:18:39;;;;;;;19.90;18.40;;;27.40;91.20;;;;;;5137783;27;20424;-43
2021/06/09 08:21:13;;;;;;;18.90;17.40;;;27.80;89.70;;;;;;5139074;27;20396;-42
2021/06/09 08:23:41;;;;;;;17.33;16.03;;;28.10;90.00;;;;;;5139620;27;20610;-41
2021/06/09 08:26:08;;;;;;;19.00;17.60;;;28.40;87.60;;;;;;5139052;27;20454;-43
2021/06/09 08:28:36;;;;;;;19.63;18.13;;;28.50;86.20;;;;;;5138794;27;20409;-42
2021/06/09 08:31:06;;;;;;;19.70;18.10;;;28.00;86.50;;;;;;5137394;27;20439;-42
2021/06/09 08:33:34;;;;;;;19.80;18.40;;;28.10;87.70;;;;;;5138798;27;20771;-42
2021/06/09 08:36:00;;;;;;;16.93;15.43;;;28.10;86.60;;;;;;5137953;27;20676;-43
2021/06/09 08:38:26;;;;;;;18.23;16.83;;;28.20;87.60;;;;;;5120063;27;20391;-43
2021/06/09 08:40:51;;;;;;;19.03;17.53;;;28.40;85.90;;;;;;5138270;27;20167;-43
2021/06/09 08:43:18;;;;;;;18.53;16.80;;;28.50;84.00;;;;;;5118937;27;20502;-42
2021/06/09 08:45:45;;;;;;;17.33;16.13;;;28.70;83.50;;;;;;5120139;27;20175;-43
2021/06/09 08:48:11;;;;;;;16.97;15.67;;;29.10;85.70;;;;;;5138566;27;20580;-41
2021/06/09 08:50:37;;;;;;;17.87;16.57;;;29.50;83.70;;;;;;5139385;27;20432;-43
2021/06/09 08:53:06;;;;;;;17.73;16.43;;;29.70;82.60;;;;;;5119128;27;20408;-42
2021/06/09 08:55:36;;;;;;;19.03;17.63;;;29.60;81.10;;;;;;5138101;27;20459;-42
2021/06/09 08:58:06;;;;;;;19.53;17.93;;;29.60;80.40;;;;;;5138539;27;20452;-41
2021/06/09 09:00:33;;;;;;;19.90;18.07;;;29.50;80.00;;;;;;5138595;27;20407;-42
2021/06/09 09:03:02;;;;;;;17.13;15.73;;;29.50;79.60;;;;;;5137122;27;20462;-40
2021/06/09 09:05:28;;;;;;;17.33;16.03;;;30.00;80.60;;;;;;5136551;27;20432;-43
2021/06/09 09:07:57;;;;;;;17.67;16.37;;;30.40;78.70;;;;;;5136664;27;20594;-42
2021/06/09 09:10:24;;;;;;;17.10;15.70;;;30.90;77.80;;;;;;5134372;27;20433;-41
2021/06/09 09:12:49;;;;;;;19.73;17.93;;;31.50;75.00;;;;;;5135522;27;20388;-42
2021/06/09 09:15:15;;;;;;;17.87;16.40;;;32.00;74.30;;;;;;5116758;27;20742;-43
2021/06/09 09:17:52;;;;;;;17.60;16.30;;;32.60;71.80;;;;;;5136882;27;20307;-43
2021/06/09 09:20:29;;;;;;;17.97;16.57;;;32.50;72.00;;;;;;5119611;27;20175;-42
2021/06/09 09:22:57;;;;;;;16.50;15.30;;;32.10;69.30;;;;;;5136597;27;20391;-43
2021/06/09 09:25:26;;;;;;;16.63;15.33;;;31.50;70.40;;;;;;5136354;27;20427;-43
2021/06/09 09:27:55;;;;;;;17.90;16.50;;;30.80;70.80;;;;;;5137577;27;20420;-44
2021/06/09 09:30:23;;;;;;;19.70;18.23;;;29.90;72.40;;;;;;5138311;27;20428;-43
2021/06/09 09:33:16;;;;;;;18.00;16.80;;;29.60;73.90;;;;;;5137157;27;20463;-43
2021/06/09 09:35:44;;;;;;;17.20;16.00;;;29.20;73.10;;;;;;5138466;27;20524;-41
2021/06/09 09:38:31;;;;;;;18.63;17.23;;;29.30;78.10;;;;;;5119569;27;20757;-42
2021/06/09 09:41:11;;;;;;;17.23;16.00;;;29.70;78.50;;;;;;5134472;27;20414;-43
2021/06/09 09:43:43;;;;;;;18.23;16.83;;;30.20;75.70;;;;;;5137064;27;20371;-43
2021/06/09 09:46:10;;;;;;;16.37;15.07;;;30.60;72.90;;;;;;5136800;27;20791;-43
2021/06/09 09:48:38;;;;;;;17.67;16.37;;;30.80;73.50;;;;;;5118763;27;20391;-43
2021/06/09 09:51:05;;;;;;;17.53;16.23;;;30.80;71.20;;;;;;5137261;27;20433;-42
2021/06/09 09:53:31;;;;;;;18.07;16.77;;;30.60;72.80;;;;;;5137814;27;20384;-43
2021/06/09 09:56:03;;;;;;;18.63;17.33;;;30.10;72.70;;;;;;5138061;27;21020;-42
2021/06/09 09:58:29;;;;;;;17.10;15.80;;;29.60;74.80;;;;;;5137480;27;20491;-44
2021/06/09 10:01:13;;;;;;;16.30;15.00;;;29.60;76.20;;;;;;5117749;27;20509;-43
2021/06/09 10:03:41;;;;;;;18.10;16.70;;;29.90;74.70;;;;;;5137483;27;20542;-42
2021/06/09 10:06:24;;;;;;;16.50;15.30;;;30.20;73.60;;;;;;5137920;27;20667;-43
2021/06/09 10:08:52;;;;;;;16.77;15.57;;;30.60;72.40;;;;;;5135433;28;20488;-43
2021/06/09 10:11:19;;;;;;;15.80;14.70;;;30.50;67.60;;;;;;5137896;28;20452;-44
2021/06/09 10:13:45;;;;;;;15.93;14.47;;;30.60;69.30;;;;;;5138376;28;20699;-43
2021/06/09 10:16:26;;;;;;;16.30;15.07;;;31.10;70.40;;;;;;5137851;28;20439;-43
2021/06/09 10:19:15;;;;;;;16.60;15.50;;;31.40;65.60;;;;;;5137521;28;20917;-45
2021/06/09 10:21:51;;;;;;;15.10;14.00;;;31.20;63.00;;;;;;5125631;28;20446;-42
2021/06/09 10:24:18;;;;;;;14.03;13.03;;;31.50;65.40;;;;;;5117831;28;20406;-42
2021/06/09 10:26:52;;;;;;;14.30;13.30;;;31.70;65.90;;;;;;5135220;28;20412;-42
2021/06/09 10:29:20;;;;;;;14.40;13.30;;;31.90;63.80;;;;;;5134469;28;20526;-43
2021/06/09 10:31:55;;;;;;;14.90;13.90;;;32.40;60.60;;;;;;5134115;28;20761;-43
2021/06/09 10:34:26;;;;;;;14.43;13.53;;;32.40;59.50;;;;;;5134440;28;20455;-43
2021/06/09 10:36:53;;;;;;;17.27;16.07;;;32.40;60.10;;;;;;5134268;28;20431;-43
2021/06/09 10:39:21;;;;;;;15.97;14.90;;;32.40;60.00;;;;;;5133405;28;20460;-43
2021/06/09 10:41:50;;;;;;;16.03;14.83;;;32.50;61.50;;;;;;5135791;28;20408;-43
2021/06/09 10:44:18;;;;;;;15.87;14.77;;;32.60;60.90;;;;;;5134671;28;20430;-44
2021/06/09 10:46:49;;;;;;;13.90;13.00;;;32.80;57.70;;;;;;5117764;28;20420;-42
2021/06/09 10:49:18;;;;;;;13.80;12.90;;;32.90;57.40;;;;;;5135930;28;20797;-42
2021/06/09 10:51:46;;;;;;;13.20;12.40;;;33.40;56.40;;;;;;5116755;28;20466;-43
2021/06/09 10:54:14;;;;;;;13.73;12.73;;;33.60;57.30;;;;;;5136106;28;20509;-43
2021/06/09 10:56:45;;;;;;;13.77;12.77;;;34.00;55.40;;;;;;5136065;28;20467;-43
2021/06/09 10:59:13;;;;;;;14.00;13.00;;;33.90;54.90;;;;;;5136070;28;20428;-43
2021/06/09 11:01:39;;;;;;;14.43;13.30;;;33.40;53.10;;;;;;5118423;28;20785;-42
2021/06/09 11:04:05;;;;;;;14.13;13.13;;;32.60;54.10;;;;;;5117825;28;20401;-43
2021/06/09 11:06:53;;;;;;;14.00;13.00;;;31.70;55.70;;;;;;5118756;28;20678;-43
2021/06/09 11:09:23;;;;;;;14.03;13.13;;;31.50;56.00;;;;;;5135631;28;20526;-43
2021/06/09 11:12:11;;;;;;;14.50;13.50;;;31.50;57.70;;;;;;5136788;28;20410;-43
2021/06/09 11:14:59;;;;;;;13.93;12.83;;;31.70;56.30;;;;;;5137245;28;20444;-43
2021/06/09 11:17:38;;;;;;;13.77;12.70;;;31.90;56.50;;;;;;5136905;27;20468;-43
2021/06/09 11:20:18;;;;;;;13.77;12.77;;;32.20;55.60;;;;;;5139259;27;20672;-42
2021/06/09 11:22:55;;;;;;;13.40;11.77;;;32.40;55.10;;;;;;5139892;27;20399;-41
2021/06/09 11:25:33;;;;;;;11.90;11.10;;;32.80;51.80;;;;;;5104829;27;20474;-43
2021/06/09 11:28:06;;;;;;;14.90;13.70;;;33.10;51.30;;;;;;5140702;27;20543;-44
2021/06/09 11:30:35;;;;;;;15.57;14.37;;;33.10;52.20;;;;;;5141269;27;20429;-42
2021/06/09 11:33:03;;;;;;;14.43;13.40;;;32.40;53.30;;;;;;5140807;27;20399;-43
2021/06/09 11:35:42;;;;;;;15.00;14.00;;;31.90;54.70;;;;;;5140450;27;20386;-43
2021/06/09 11:38:14;;;;;;;13.23;12.33;;;31.30;54.70;;;;;;5139207;27;20438;-43
2021/06/09 11:41:07;;;;;;;12.57;11.60;;;31.00;55.20;;;;;;5139266;27;20450;-43
2021/06/09 11:43:32;;;;;;;17.77;16.47;;;30.70;55.80;;;;;;5117362;28;20719;-42
2021/06/09 11:46:04;;;;;;;21.13;19.70;;;30.50;57.10;;;;;;5115707;28;20464;-42
2021/06/09 11:48:31;;;;;;;20.53;19.00;;;30.20;57.80;;;;;;5134541;27;20182;-42
2021/06/09 11:51:16;;;;;;;20.77;19.37;;;30.00;58.50;;;;;;5140586;27;20443;-43
2021/06/09 11:53:45;;;;;;;19.00;17.50;;;29.90;59.50;;;;;;5139852;27;20477;-43
2021/06/09 11:56:16;;;;;;;20.23;18.70;;;29.80;59.60;;;;;;5120783;27;20414;-40
2021/06/09 11:58:43;;;;;;;16.80;15.50;;;29.60;59.70;;;;;;5137797;27;20457;-42
2021/06/09 12:01:11;;;;;;;15.50;14.30;;;29.20;60.80;;;;;;5137778;27;20835;-43
2021/06/09 12:03:39;;;;;;;14.20;13.20;;;29.10;59.30;;;;;;5137882;27;20404;-42
2021/06/09 12:06:17;;;;;;;14.10;13.10;;;29.00;60.30;;;;;;5138953;27;20490;-40
2021/06/09 12:08:44;;;;;;;15.53;14.43;;;28.90;59.90;;;;;;5138864;27;20499;-43
2021/06/09 12:11:09;;;;;;;12.87;11.87;;;29.00;60.20;;;;;;5139315;27;20814;-43
2021/06/09 12:13:35;;;;;;;11.20;10.40;;;29.60;59.00;;;;;;5138840;27;20399;-44
2021/06/09 12:16:25;;;;;;;14.80;13.80;;;30.40;56.40;;;;;;5136358;27;20313;-43
2021/06/09 12:18:52;;;;;;;15.63;14.20;;;31.10;58.70;;;;;;5138054;27;20390;-43
2021/06/09 12:21:19;;;;;;;15.00;14.00;;;31.30;57.80;;;;;;5138133;27;20424;-43
2021/06/09 12:23:54;;;;;;;15.10;14.00;;;30.60;59.50;;;;;;5137902;27;20819;-42
2021/06/09 12:26:20;;;;;;;16.20;15.00;;;30.20;66.30;;;;;;5138789;27;20434;-41
2021/06/09 12:28:45;;;;;;;15.77;14.57;;;29.20;68.30;;;;;;5138816;27;20379;-40
2021/06/09 12:31:11;;;;;;;14.60;13.60;;;28.60;70.50;;;;;;5139919;27;20407;-42
2021/06/09 12:33:42;;;;;;;12.73;11.83;;;28.10;70.70;;;;;;5137913;27;20163;-50
2021/06/09 12:36:13;;;;;;;13.30;12.40;;;27.80;73.70;;;;;;5140084;27;20399;-41
2021/06/09 12:38:40;;;;;;;13.37;12.47;;;27.80;74.20;;;;;;5103598;28;20451;-43